Aplicació Alertes

Dades de l'estació automàtica Aitona

?
?
Resum diari 22:30 TU
Dades diàries de l'estació meteorològica
Temperatura mitjana 4.4 °C
Temperatura màxima 12.8 °C 14:34 TU
Temperatura mínima -3.9 °C 7:11 TU
Humitat relativa mitjana 69%
Precipitació acumulada 0.0 mm
Ratxa màxima del vent (2 m) 17.3 km/h - 217º 13:38 TU
Irradiació solar global 8.7 MJ/m2

El tram horari està expressat en Temps Universal (TU). Cal sumar una hora en horari d'hivern i dues en horari d'estiu per passar a l'hora oficial.

Aitona

Metadades estació meteorol´gica
Municipi Aitona
Comarca Segrià
Altitud 97 m
Data alta 12.03.1998
Estat actual Operativa
Dades de període
Període
TU
TM
°C
TX
°C
TN
°C
HRM
%
PPT
mm
VVM (2 m)
km/h
DVM (2 m)
graus
VVX (2 m)
km/h
RS
W/m2
00:00 - 00:30 3.6 4.4 2.7 74 0.0 4.7 220 11.5 0
00:30 - 01:00 3.0 3.4 2.7 76 0.0 3.6 232 8.3 0
01:00 - 01:30 2.6 3.7 1.7 76 0.0 3.6 222 9.0 0
01:30 - 02:00 2.7 3.1 2.4 76 0.0 2.2 176 5.8 0
02:00 - 02:30 2.7 3.0 2.3 76 0.0 1.4 184 5.8 0
02:30 - 03:00 2.3 2.9 1.8 77 0.0 0.7 199 2.9 0
03:00 - 03:30 0.8 1.8 -0.5 83 0.0 0.4 226 2.5 0
03:30 - 04:00 -0.5 -0.1 -1.4 89 0.0 0.7 269 4.0 0
04:00 - 04:30 -1.6 -1.0 -1.9 94 0.0 0.4 267 2.2 0
04:30 - 05:00 -1.3 -0.9 -1.6 93 0.0 0.7 271 2.9 0
05:00 - 05:30 -2.0 -1.0 -2.6 93 0.0 0.0 270 1.1 0
05:30 - 06:00 -2.5 -2.1 -3.1 94 0.0 0.7 273 2.5 0
06:00 - 06:30 -3.3 -2.8 -3.8 95 0.0 0.7 287 3.2 0
06:30 - 07:00 -3.0 -2.3 -3.7 94 0.0 0.7 345 4.3 0
07:00 - 07:30 -3.5 -2.9 -3.9 96 0.0 0.0 337 1.1 2
07:30 - 08:00 -3.1 -2.8 -3.5 97 0.0 0.0 0 0.0 21
08:00 - 08:30 -1.7 -0.3 -3.0 95 0.0 2.5 0 10.8 174
08:30 - 09:00 0.7 1.6 -0.3 87 0.0 3.6 31 8.6 276
09:00 - 09:30 2.8 3.3 1.8 81 0.0 3.6 42 7.2 258
09:30 - 10:00 4.5 6.3 3.3 74 0.0 2.5 76 7.9 315
10:00 - 10:30 6.4 7.0 5.7 66 0.0 3.2 205 9.7 363
10:30 - 11:00 7.5 8.4 7.0 62 0.0 5.8 197 12.2 398
11:00 - 11:30 8.8 9.1 8.3 55 0.0 4.3 209 10.8 431
11:30 - 12:00 9.5 10.0 9.0 50 0.0 5.0 223 15.1 444
12:00 - 12:30 10.1 10.7 9.6 48 0.0 6.5 221 14.8 440
12:30 - 13:00 10.7 11.7 10.1 46 0.0 5.4 227 15.1 419
13:00 - 13:30 11.4 11.7 11.0 43 0.0 7.6 209 16.6 324
13:30 - 14:00 12.0 12.4 11.6 38 0.0 7.9 217 17.3 328
14:00 - 14:30 12.1 12.5 11.6 36 0.0 6.5 234 15.8 238
14:30 - 15:00 12.4 12.8 11.9 36 0.0 6.5 209 12.6 205
15:00 - 15:30 12.5 12.7 12.3 36 0.0 5.0 217 11.2 148
15:30 - 16:00 12.0 12.4 11.3 39 0.0 3.2 195 7.2 78
16:00 - 16:30 10.5 11.3 9.2 42 0.0 1.4 220 5.8 18
16:30 - 17:00 7.8 9.0 6.4 50 0.0 0.4 63 3.2 0
17:00 - 17:30 5.5 6.6 4.7 57 0.0 0.7 74 2.5 0
17:30 - 18:00 5.2 5.5 4.6 62 0.0 2.2 235 4.0 0
18:00 - 18:30 4.2 4.9 3.9 67 0.0 2.9 232 5.8 0
18:30 - 19:00 4.1 4.3 3.9 69 0.0 2.5 211 5.8 0
19:00 - 19:30 4.9 5.4 4.3 67 0.0 0.7 141 5.0 0
19:30 - 20:00 5.0 5.3 4.6 66 0.0 1.1 222 4.0 0
20:00 - 20:30 4.1 5.0 3.5 69 0.0 1.4 231 4.0 0
20:30 - 21:00 4.5 4.9 3.9 68 0.0 1.1 226 3.2 0
21:00 - 21:30 4.0 4.7 3.6 71 0.0 1.4 242 4.0 0
21:30 - 22:00 4.1 4.2 3.9 73 0.0 1.1 248 2.9 0
22:00 - 22:30 4.1 4.6 3.5 74 0.0 0.4 255 2.5 0
22:30 - 23:00 3.6 4.1 3.1 79 0.0 0.4 273 1.8 0

Les dades en taronja només han passat un control de qualitat automàtic. Resta pendent la seva validació definitiva.